Create Custom Reports and Graphics: Custom Report

Soquel - CalFire

Current Conditions

3/28/20 9:45 PM (-07:00)
Updated Every 15 Minutes
Temp 45.2 °F   3.7
RH 92 %   8
Dew Pt 43.0 °F   6.1
Wind Spd 0.1 mph
Wind Dir E | 99 °
Wind Gust 0.8 mph   1.0
Latest Rain 0.00 In
Daily Rain 0.03 In
Leaf Wet 15.0 mins
Daily Min Temp 41.0 °F   6.4
Daily Max Temp 53.4 °F   5.7

Daily Summary

Last 30 Days

Daily Data | America/Los_Angeles
as of 3/28/20 9:52 PM PDT
Date Daily Max Temp (°F) Daily Min Temp (°F) Daily Rain (In) Seasonal Rainfall (In) Daily Solar Rad (Cal/cm2) Daily ETo (in) Wind Spd (mph) Daily Max Wind (mph) Max Wind Dir (°) Dew Pt (°F) Max RH (%) Min RH (%) Daily Leaf Wet Hrs (hrs) Soil Temp (°F) Soil Moist (%) Fuel Moisture (%) Max Fuel Moisture (%) Min Fuel Moisture (%) Bat Volt Min Day (V)
3/27/20 59.1 34.6 0.00 23.22 426 0.098 1.6 9.8 WNW | 289 36.1 93 40 10.9 53.8 27.6 28 38 18 12.4
3/26/20 53.1 33.6 0.01 23.22 308 0.067 1.4 8.2 WNW | 298 35.0 93 44 14.1 53.8 28.2 32 40 23 12.5
3/25/20 55.1 36.9 0.02 23.21 374 0.081 1.5 14.6 WSW | 253 37.3 95 46 13.9 53.7 29.3 42 53 28 12.4
3/24/20 49.8 40.2 0.56 23.19 175 0.040 1.0 8.9 SSW | 212 41.4 94 68 14.7 53.6 28.3 41 53 28 12.5
3/23/20 59.7 44.7 0.00 22.63 297 0.074 1.1 10.3 W | 280 44.1 93 58 7.8 53.5 27.0 33 42 23 12.4
3/22/20 63.7 46.4 0.05 22.63 290 0.073 1.1 8.9 NNE | 15 45.0 92 41 11.7 53.6 27.0 34 41 16 12.4
3/21/20 56.2 44.0 0.04 22.58 169 0.042 0.7 7.1 S | 179 43.4 94 59 10.8 53.6 27.1 35 46 29 12.4
3/20/20 60.3 38.1 0.00 22.54 270 0.064 1.3 7.8 SW | 217 40.2 95 44 11.3 53.7 27.2 36 46 21 12.5
3/19/20 56.9 36.7 0.03 22.54 311 0.070 1.2 8.2 S | 171 39.2 94 52 13.4 53.8 27.6 32 40 20 12.5
3/18/20 52.4 37.2 0.01 22.51 228 0.049 0.9 7.6 WSW | 256 39.3 95 60 13.0 54.0 28.1 42 52 28 12.5
3/17/20 53.2 34.9 0.05 22.50 324 0.072 1.3 10.6 WSW | 238 37.2 95 55 17.5 54.2 28.6 46 54 27 12.5
3/16/20 51.8 36.3 0.36 22.45 313 0.067 1.1 10.7 W | 269 38.4 95 60 19.6 54.3 30.5 49 56 31 12.3
3/15/20 46.8 41.5 1.88 22.09 147 0.035 2.1 15.8 SW | 229 41.8 94 84 24.0 54.4 31.7 53 56 48 12.3
3/14/20 48.4 42.5 1.92 20.21 110 0.027 2.3 19.3 SSW | 207 43.3 94 79 20.8 54.3 25.8 47 53 39 12.3
3/13/20 50.4 43.5 0.04 18.29 73 0.019 1.5 13.2 SW | 214 44.3 94 68 20.5 54.1 22.4 34 47 21 12.4
3/12/20 72.6 48.8 0.00 18.25 494 0.133 1.4 9.4 SW | 224 45.1 88 33 3.2 53.9 22.5 18 27 3 12.4
3/11/20 70.1 47.8 0.00 18.25 412 0.110 1.3 8.9 SSW | 211 46.8 87 45 0.1 53.8 22.7 20 27 7 12.5
3/10/20 65.6 50.7 0.01 18.25 245 0.063 1.2 9.5 N | 7 43.6 89 38 3.4 53.7 22.8 21 24 15 12.5
3/9/20 62.6 40.6 0.00 18.24 293 0.071 1.4 11.3 N | 4 41.2 91 46 3.7 53.6 22.9 27 35 18 12.5
3/8/20 53.9 41.4 0.07 18.24 287 0.063 1.0 9.5 SW | 217 40.5 95 51 11.1 53.5 23.2 42 54 29 12.4
3/7/20 49.7 42.2 0.42 18.17 147 0.034 1.3 9.6 WNW | 286 42.8 94 89 24.0 53.2 22.6 52 55 38 12.4
3/6/20 59.2 44.0 0.03 17.75 326 0.078 1.1 8.6 WSW | 241 43.9 93 57 6.3 53.0 21.4 20 38 12 12.5
3/5/20 65.7 43.9 0.00 17.72 426 0.105 1.1 7.7 SW | 236 45.6 93 53 4.1 52.9 21.4 16 20 7 12.5
3/4/20 72.4 45.6 0.00 17.72 454 0.120 1.4 6.8 WSW | 253 40.9 93 30 2.4 52.8 21.4 10 17 0 12.5
3/3/20 73.7 50.0 0.00 17.72 462 0.121 2.0 13.1 WSW | 237 35.4 57 22 0.0 52.8 21.5 9 13 0 12.5
3/2/20 66.2 46.5 0.00 17.72 464 0.109 3.6 22.0 N | 1 17.2 36 11 0.0 52.7 21.5 11 16 3 12.4
3/1/20 51.9 35.8 0.00 17.72 208 0.046 1.6 16.9 NNW | 331 31.2 85 28 2.7 52.6 21.8 17 21 14 12.5
2/29/20 63.7 40.4 0.00 17.72 444 0.107 1.5 12.1 SSW | 207 38.1 92 38 3.2 52.3 22.0 13 18 7 12.4
2/28/20 76.6 53.0 0.00 17.72 397 0.107 1.3 9.2 SW | 227 39.2 58 19 0.0 52.0 22.2 10 14 0 12.4
2/27/20 79.6 52.3 0.00 17.72 394 0.107 1.3 9.6 NNW | 342 37.3 58 19 0.0 51.9 22.2 9 14 0 12.4
Max 79.6 53.0 1.92 - 494 0.133 3.6 22.0 - 46.8 95 89 24.0 54.4 31.7 53 56 48 12.5
Avg - - - - - - 1.4 - - 39.8 - - - 53.4 24.9 29 37 18 -
Min 46.8 33.6 0.00 - 73 0.019 0.7 6.8 - 17.2 36 11 0.0 51.9 21.4 9 13 0 12.3